sensor_id;sensor_type;location;lat;lon;timestamp;P1;durP1;ratioP1;P2;durP2;ratioP2
58637;SDS011;54976;51.510;7.522;2023-11-19T00:01:25;3.10;;;1.00;;
58637;SDS011;54976;51.510;7.522;2023-11-19T00:04:25;1.27;;;0.60;;
58637;SDS011;54976;51.510;7.522;2023-11-19T00:07:26;0.40;;;0.40;;
58637;SDS011;54976;51.510;7.522;2023-11-19T00:10:26;0.80;;;0.50;;
58637;SDS011;54976;51.510;7.522;2023-11-19T00:13:27;0.60;;;0.60;;
58637;SDS011;54976;51.510;7.522;2023-11-19T00:16:27;0.50;;;0.50;;
58637;SDS011;54976;51.510;7.522;2023-11-19T00:19:28;4.68;;;2.53;;
58637;SDS011;54976;51.510;7.522;2023-11-19T00:22:29;0.73;;;0.52;;
58637;SDS011;54976;51.510;7.522;2023-11-19T00:25:29;1.02;;;0.70;;
58637;SDS011;54976;51.510;7.522;2023-11-19T00:28:30;0.63;;;0.60;;
58637;SDS011;54976;51.510;7.522;2023-11-19T00:31:30;0.80;;;0.70;;
58637;SDS011;54976;51.510;7.522;2023-11-19T00:34:31;1.88;;;0.90;;
58637;SDS011;54976;51.510;7.522;2023-11-19T00:37:32;2.00;;;1.05;;
58637;SDS011;54976;51.510;7.522;2023-11-19T00:40:33;1.10;;;0.80;;
58637;SDS011;54976;51.510;7.522;2023-11-19T00:43:33;0.85;;;0.80;;
58637;SDS011;54976;51.510;7.522;2023-11-19T00:46:34;1.33;;;1.05;;
58637;SDS011;54976;51.510;7.522;2023-11-19T00:49:35;1.08;;;1.02;;
58637;SDS011;54976;51.510;7.522;2023-11-19T00:52:35;0.90;;;0.88;;
58637;SDS011;54976;51.510;7.522;2023-11-19T00:55:37;1.27;;;1.17;;
58637;SDS011;54976;51.510;7.522;2023-11-19T00:58:37;5.40;;;1.50;;
58637;SDS011;54976;51.510;7.522;2023-11-19T01:01:38;2.47;;;1.30;;
58637;SDS011;54976;51.510;7.522;2023-11-19T01:04:39;2.25;;;1.65;;
58637;SDS011;54976;51.510;7.522;2023-11-19T01:07:39;2.95;;;1.50;;
58637;SDS011;54976;51.510;7.522;2023-11-19T01:10:40;2.17;;;1.52;;
58637;SDS011;54976;51.510;7.522;2023-11-19T01:13:40;4.05;;;1.88;;
58637;SDS011;54976;51.510;7.522;2023-11-19T01:16:41;1.85;;;1.60;;
58637;SDS011;54976;51.510;7.522;2023-11-19T01:19:42;1.88;;;1.75;;
58637;SDS011;54976;51.510;7.522;2023-11-19T01:22:43;3.42;;;2.15;;
58637;SDS011;54976;51.510;7.522;2023-11-19T01:25:44;2.55;;;1.70;;
58637;SDS011;54976;51.510;7.522;2023-11-19T01:28:45;3.28;;;1.73;;
58637;SDS011;54976;51.510;7.522;2023-11-19T01:31:46;4.18;;;1.70;;
58637;SDS011;54976;51.510;7.522;2023-11-19T01:34:47;3.70;;;1.73;;
58637;SDS011;54976;51.510;7.522;2023-11-19T01:37:47;2.08;;;1.77;;
58637;SDS011;54976;51.510;7.522;2023-11-19T01:40:48;3.45;;;1.73;;
58637;SDS011;54976;51.510;7.522;2023-11-19T01:43:49;2.50;;;2.28;;
58637;SDS011;54976;51.510;7.522;2023-11-19T01:46:49;6.28;;;2.53;;
58637;SDS011;54976;51.510;7.522;2023-11-19T01:49:51;4.10;;;2.10;;
58637;SDS011;54976;51.510;7.522;2023-11-19T01:52:55;1.70;;;1.60;;
58637;SDS011;54976;51.510;7.522;2023-11-19T01:56:00;3.60;;;1.98;;
58637;SDS011;54976;51.510;7.522;2023-11-19T01:59:01;5.05;;;2.30;;
58637;SDS011;54976;51.510;7.522;2023-11-19T02:02:02;5.57;;;1.38;;
58637;SDS011;54976;51.510;7.522;2023-11-19T02:05:03;2.03;;;1.70;;
58637;SDS011;54976;51.510;7.522;2023-11-19T02:08:04;2.78;;;1.70;;
58637;SDS011;54976;51.510;7.522;2023-11-19T02:11:05;5.07;;;1.38;;
58637;SDS011;54976;51.510;7.522;2023-11-19T02:14:07;2.35;;;1.48;;
58637;SDS011;54976;51.510;7.522;2023-11-19T02:17:07;1.45;;;1.33;;
58637;SDS011;54976;51.510;7.522;2023-11-19T02:20:31;3.13;;;1.40;;
58637;SDS011;54976;51.510;7.522;2023-11-19T02:23:32;2.53;;;1.38;;
58637;SDS011;54976;51.510;7.522;2023-11-19T02:26:36;4.45;;;1.60;;
58637;SDS011;54976;51.510;7.522;2023-11-19T02:29:41;1.67;;;1.17;;
58637;SDS011;54976;51.510;7.522;2023-11-19T02:32:42;1.70;;;1.60;;
58637;SDS011;54976;51.510;7.522;2023-11-19T02:35:43;3.40;;;1.40;;
58637;SDS011;54976;51.510;7.522;2023-11-19T02:38:43;6.50;;;1.75;;
58637;SDS011;54976;51.510;7.522;2023-11-19T02:41:44;4.53;;;1.90;;
58637;SDS011;54976;51.510;7.522;2023-11-19T02:44:45;6.10;;;1.48;;
58637;SDS011;54976;51.510;7.522;2023-11-19T02:47:46;4.78;;;1.70;;
58637;SDS011;54976;51.510;7.522;2023-11-19T02:50:46;10.90;;;2.13;;
58637;SDS011;54976;51.510;7.522;2023-11-19T02:53:47;9.93;;;2.15;;
58637;SDS011;54976;51.510;7.522;2023-11-19T02:56:48;8.60;;;2.28;;
58637;SDS011;54976;51.510;7.522;2023-11-19T02:59:59;9.68;;;2.13;;
58637;SDS011;54976;51.510;7.522;2023-11-19T03:03:00;8.30;;;2.20;;
58637;SDS011;54976;51.510;7.522;2023-11-19T03:06:09;9.93;;;1.95;;
58637;SDS011;54976;51.510;7.522;2023-11-19T03:09:11;16.55;;;2.83;;
58637;SDS011;54976;51.510;7.522;2023-11-19T03:12:11;6.22;;;1.83;;
58637;SDS011;54976;51.510;7.522;2023-11-19T03:15:12;10.70;;;2.28;;
58637;SDS011;54976;51.510;7.522;2023-11-19T03:18:12;9.55;;;1.88;;
58637;SDS011;54976;51.510;7.522;2023-11-19T03:21:13;13.05;;;2.30;;
58637;SDS011;54976;51.510;7.522;2023-11-19T03:24:14;12.90;;;2.55;;
58637;SDS011;54976;51.510;7.522;2023-11-19T03:27:15;12.95;;;2.70;;
58637;SDS011;54976;51.510;7.522;2023-11-19T03:30:16;14.43;;;2.80;;
58637;SDS011;54976;51.510;7.522;2023-11-19T03:33:17;12.27;;;2.17;;
58637;SDS011;54976;51.510;7.522;2023-11-19T03:36:18;12.38;;;2.55;;
58637;SDS011;54976;51.510;7.522;2023-11-19T03:39:18;13.25;;;2.78;;
58637;SDS011;54976;51.510;7.522;2023-11-19T03:42:19;14.27;;;2.80;;
58637;SDS011;54976;51.510;7.522;2023-11-19T03:45:23;15.73;;;2.78;;
58637;SDS011;54976;51.510;7.522;2023-11-19T03:48:25;17.15;;;2.90;;
58637;SDS011;54976;51.510;7.522;2023-11-19T03:51:25;17.63;;;3.13;;
58637;SDS011;54976;51.510;7.522;2023-11-19T03:54:26;19.45;;;2.55;;
58637;SDS011;54976;51.510;7.522;2023-11-19T03:57:27;14.10;;;2.58;;
58637;SDS011;54976;51.510;7.522;2023-11-19T04:00:28;12.60;;;2.47;;
58637;SDS011;54976;51.510;7.522;2023-11-19T04:03:28;9.13;;;2.25;;
58637;SDS011;54976;51.510;7.522;2023-11-19T04:06:29;16.95;;;2.67;;
58637;SDS011;54976;51.510;7.522;2023-11-19T04:09:30;24.67;;;2.53;;
58637;SDS011;54976;51.510;7.522;2023-11-19T04:12:32;13.80;;;1.98;;
58637;SDS011;54976;51.510;7.522;2023-11-19T04:15:33;22.08;;;2.90;;
58637;SDS011;54976;51.510;7.522;2023-11-19T04:18:34;13.57;;;2.72;;
58637;SDS011;54976;51.510;7.522;2023-11-19T04:21:34;23.67;;;3.17;;
58637;SDS011;54976;51.510;7.522;2023-11-19T04:24:35;16.75;;;2.85;;
58637;SDS011;54976;51.510;7.522;2023-11-19T04:27:36;9.85;;;2.33;;
58637;SDS011;54976;51.510;7.522;2023-11-19T04:30:36;21.17;;;2.97;;
58637;SDS011;54976;51.510;7.522;2023-11-19T04:33:37;22.13;;;3.78;;
58637;SDS011;54976;51.510;7.522;2023-11-19T04:36:38;17.25;;;2.58;;
58637;SDS011;54976;51.510;7.522;2023-11-19T04:39:39;15.70;;;2.33;;
58637;SDS011;54976;51.510;7.522;2023-11-19T04:42:39;26.10;;;3.85;;
58637;SDS011;54976;51.510;7.522;2023-11-19T04:45:40;15.35;;;2.45;;
58637;SDS011;54976;51.510;7.522;2023-11-19T04:48:41;17.98;;;2.75;;
58637;SDS011;54976;51.510;7.522;2023-11-19T04:51:42;17.48;;;2.75;;
58637;SDS011;54976;51.510;7.522;2023-11-19T04:54:43;22.27;;;2.83;;
58637;SDS011;54976;51.510;7.522;2023-11-19T04:57:44;23.13;;;2.75;;
58637;SDS011;54976;51.510;7.522;2023-11-19T05:00:45;22.95;;;3.00;;
58637;SDS011;54976;51.510;7.522;2023-11-19T05:03:45;16.98;;;2.58;;
58637;SDS011;54976;51.510;7.522;2023-11-19T05:06:46;27.08;;;2.95;;
58637;SDS011;54976;51.510;7.522;2023-11-19T05:09:46;20.20;;;3.20;;
58637;SDS011;54976;51.510;7.522;2023-11-19T05:12:47;23.75;;;3.10;;
58637;SDS011;54976;51.510;7.522;2023-11-19T05:15:48;19.17;;;2.65;;
58637;SDS011;54976;51.510;7.522;2023-11-19T05:18:48;21.60;;;3.28;;
58637;SDS011;54976;51.510;7.522;2023-11-19T05:21:49;15.57;;;2.60;;
58637;SDS011;54976;51.510;7.522;2023-11-19T05:24:52;23.50;;;2.60;;
58637;SDS011;54976;51.510;7.522;2023-11-19T05:27:53;26.95;;;3.13;;
58637;SDS011;54976;51.510;7.522;2023-11-19T05:30:54;30.75;;;3.30;;
58637;SDS011;54976;51.510;7.522;2023-11-19T05:33:56;23.58;;;3.42;;
58637;SDS011;54976;51.510;7.522;2023-11-19T05:36:57;21.42;;;2.92;;
58637;SDS011;54976;51.510;7.522;2023-11-19T05:39:57;19.48;;;3.75;;
58637;SDS011;54976;51.510;7.522;2023-11-19T05:43:00;32.20;;;4.00;;
58637;SDS011;54976;51.510;7.522;2023-11-19T05:46:00;21.40;;;3.40;;
58637;SDS011;54976;51.510;7.522;2023-11-19T05:49:04;32.47;;;3.92;;
58637;SDS011;54976;51.510;7.522;2023-11-19T05:52:04;28.05;;;4.55;;
58637;SDS011;54976;51.510;7.522;2023-11-19T05:55:07;25.23;;;2.85;;
58637;SDS011;54976;51.510;7.522;2023-11-19T05:58:10;27.98;;;3.40;;
58637;SDS011;54976;51.510;7.522;2023-11-19T06:01:12;28.88;;;3.65;;
58637;SDS011;54976;51.510;7.522;2023-11-19T06:04:12;24.20;;;3.22;;
58637;SDS011;54976;51.510;7.522;2023-11-19T06:07:13;23.10;;;3.58;;
58637;SDS011;54976;51.510;7.522;2023-11-19T06:10:15;26.38;;;3.35;;
58637;SDS011;54976;51.510;7.522;2023-11-19T06:13:16;29.30;;;3.65;;
58637;SDS011;54976;51.510;7.522;2023-11-19T06:16:17;26.13;;;3.53;;
58637;SDS011;54976;51.510;7.522;2023-11-19T06:19:17;33.47;;;3.90;;
58637;SDS011;54976;51.510;7.522;2023-11-19T06:22:18;31.92;;;3.42;;
58637;SDS011;54976;51.510;7.522;2023-11-19T06:25:19;20.67;;;2.97;;
58637;SDS011;54976;51.510;7.522;2023-11-19T06:28:20;24.70;;;3.28;;
58637;SDS011;54976;51.510;7.522;2023-11-19T06:31:20;19.92;;;2.85;;
58637;SDS011;54976;51.510;7.522;2023-11-19T06:34:21;27.23;;;3.50;;
58637;SDS011;54976;51.510;7.522;2023-11-19T06:37:22;21.45;;;3.20;;
58637;SDS011;54976;51.510;7.522;2023-11-19T06:40:23;32.47;;;3.58;;
58637;SDS011;54976;51.510;7.522;2023-11-19T06:43:23;25.45;;;3.67;;
58637;SDS011;54976;51.510;7.522;2023-11-19T06:46:25;19.33;;;3.47;;
58637;SDS011;54976;51.510;7.522;2023-11-19T06:49:26;30.17;;;3.78;;
58637;SDS011;54976;51.510;7.522;2023-11-19T06:52:26;24.70;;;3.38;;
58637;SDS011;54976;51.510;7.522;2023-11-19T06:55:27;32.30;;;3.72;;
58637;SDS011;54976;51.510;7.522;2023-11-19T06:58:28;21.80;;;3.50;;
58637;SDS011;54976;51.510;7.522;2023-11-19T07:01:28;30.20;;;3.25;;
58637;SDS011;54976;51.510;7.522;2023-11-19T07:04:36;25.15;;;3.58;;
58637;SDS011;54976;51.510;7.522;2023-11-19T07:07:36;29.95;;;3.75;;
58637;SDS011;54976;51.510;7.522;2023-11-19T07:10:37;25.95;;;3.47;;
58637;SDS011;54976;51.510;7.522;2023-11-19T07:13:38;21.40;;;3.97;;
58637;SDS011;54976;51.510;7.522;2023-11-19T07:16:39;29.95;;;3.55;;
58637;SDS011;54976;51.510;7.522;2023-11-19T07:19:39;26.10;;;3.15;;
58637;SDS011;54976;51.510;7.522;2023-11-19T07:22:42;26.33;;;3.05;;
58637;SDS011;54976;51.510;7.522;2023-11-19T07:25:45;23.10;;;3.67;;
58637;SDS011;54976;51.510;7.522;2023-11-19T07:28:47;26.38;;;3.58;;
58637;SDS011;54976;51.510;7.522;2023-11-19T07:31:48;22.02;;;3.15;;
58637;SDS011;54976;51.510;7.522;2023-11-19T07:34:49;27.00;;;3.60;;
58637;SDS011;54976;51.510;7.522;2023-11-19T07:37:50;26.17;;;3.67;;
58637;SDS011;54976;51.510;7.522;2023-11-19T07:40:51;37.13;;;4.50;;
58637;SDS011;54976;51.510;7.522;2023-11-19T07:43:51;25.50;;;3.72;;
58637;SDS011;54976;51.510;7.522;2023-11-19T07:46:52;29.98;;;3.58;;
58637;SDS011;54976;51.510;7.522;2023-11-19T07:49:53;23.98;;;3.42;;
58637;SDS011;54976;51.510;7.522;2023-11-19T07:52:53;28.75;;;3.58;;
58637;SDS011;54976;51.510;7.522;2023-11-19T07:55:54;31.60;;;4.47;;
58637;SDS011;54976;51.510;7.522;2023-11-19T07:58:55;31.42;;;3.78;;
58637;SDS011;54976;51.510;7.522;2023-11-19T08:01:55;21.50;;;3.05;;
58637;SDS011;54976;51.510;7.522;2023-11-19T08:04:56;20.85;;;3.00;;
58637;SDS011;54976;51.510;7.522;2023-11-19T08:07:56;23.83;;;3.97;;
58637;SDS011;54976;51.510;7.522;2023-11-19T08:10:58;31.40;;;3.83;;
58637;SDS011;54976;51.510;7.522;2023-11-19T08:13:59;27.30;;;3.28;;
58637;SDS011;54976;51.510;7.522;2023-11-19T08:16:59;28.65;;;3.50;;
58637;SDS011;54976;51.510;7.522;2023-11-19T08:20:00;20.65;;;3.22;;
58637;SDS011;54976;51.510;7.522;2023-11-19T08:23:02;30.67;;;3.72;;
58637;SDS011;54976;51.510;7.522;2023-11-19T08:26:04;28.70;;;3.65;;
58637;SDS011;54976;51.510;7.522;2023-11-19T08:29:05;28.27;;;3.38;;
58637;SDS011;54976;51.510;7.522;2023-11-19T08:32:06;29.05;;;3.65;;
58637;SDS011;54976;51.510;7.522;2023-11-19T08:35:07;19.58;;;2.95;;
58637;SDS011;54976;51.510;7.522;2023-11-19T08:38:08;34.40;;;3.85;;
58637;SDS011;54976;51.510;7.522;2023-11-19T08:41:08;30.70;;;3.85;;
58637;SDS011;54976;51.510;7.522;2023-11-19T08:44:10;25.92;;;3.58;;
58637;SDS011;54976;51.510;7.522;2023-11-19T08:47:11;27.23;;;3.65;;
58637;SDS011;54976;51.510;7.522;2023-11-19T08:50:12;26.08;;;3.35;;
58637;SDS011;54976;51.510;7.522;2023-11-19T08:53:12;22.98;;;4.00;;
58637;SDS011;54976;51.510;7.522;2023-11-19T08:56:13;25.00;;;3.85;;
58637;SDS011;54976;51.510;7.522;2023-11-19T08:59:14;37.25;;;4.22;;
58637;SDS011;54976;51.510;7.522;2023-11-19T09:02:15;27.30;;;3.75;;
58637;SDS011;54976;51.510;7.522;2023-11-19T09:05:16;25.50;;;3.33;;
58637;SDS011;54976;51.510;7.522;2023-11-19T09:08:17;31.75;;;3.83;;
58637;SDS011;54976;51.510;7.522;2023-11-19T09:11:17;33.70;;;4.63;;
58637;SDS011;54976;51.510;7.522;2023-11-19T09:14:18;29.30;;;3.85;;
58637;SDS011;54976;51.510;7.522;2023-11-19T09:17:21;23.13;;;3.78;;
58637;SDS011;54976;51.510;7.522;2023-11-19T09:20:21;29.25;;;3.67;;
58637;SDS011;54976;51.510;7.522;2023-11-19T09:23:22;29.42;;;4.45;;
58637;SDS011;54976;51.510;7.522;2023-11-19T09:26:22;26.08;;;3.65;;
58637;SDS011;54976;51.510;7.522;2023-11-19T09:29:23;30.88;;;3.85;;
58637;SDS011;54976;51.510;7.522;2023-11-19T09:32:24;29.42;;;3.75;;
58637;SDS011;54976;51.510;7.522;2023-11-19T09:35:25;28.70;;;4.00;;
58637;SDS011;54976;51.510;7.522;2023-11-19T09:38:25;40.67;;;5.00;;
58637;SDS011;54976;51.510;7.522;2023-11-19T09:41:26;26.67;;;3.90;;
58637;SDS011;54976;51.510;7.522;2023-11-19T09:44:28;25.30;;;3.60;;
58637;SDS011;54976;51.510;7.522;2023-11-19T09:47:29;33.95;;;4.00;;
58637;SDS011;54976;51.510;7.522;2023-11-19T09:50:29;24.42;;;3.63;;
58637;SDS011;54976;51.510;7.522;2023-11-19T09:53:31;24.60;;;3.85;;
58637;SDS011;54976;51.510;7.522;2023-11-19T09:56:32;23.58;;;3.72;;
58637;SDS011;54976;51.510;7.522;2023-11-19T09:59:35;33.33;;;4.22;;
58637;SDS011;54976;51.510;7.522;2023-11-19T10:02:38;24.50;;;4.43;;
58637;SDS011;54976;51.510;7.522;2023-11-19T10:05:39;32.42;;;4.43;;
58637;SDS011;54976;51.510;7.522;2023-11-19T10:08:41;28.38;;;3.67;;
58637;SDS011;54976;51.510;7.522;2023-11-19T10:11:42;29.92;;;4.10;;
58637;SDS011;54976;51.510;7.522;2023-11-19T10:14:42;27.05;;;3.90;;
58637;SDS011;54976;51.510;7.522;2023-11-19T10:17:44;25.88;;;3.65;;
58637;SDS011;54976;51.510;7.522;2023-11-19T10:20:44;32.63;;;4.50;;
58637;SDS011;54976;51.510;7.522;2023-11-19T10:26:54;30.20;;;3.80;;
58637;SDS011;54976;51.510;7.522;2023-11-19T10:29:59;28.70;;;4.43;;
58637;SDS011;54976;51.510;7.522;2023-11-19T10:33:03;28.77;;;3.63;;
58637;SDS011;54976;51.510;7.522;2023-11-19T10:36:05;23.92;;;3.58;;
58637;SDS011;54976;51.510;7.522;2023-11-19T10:39:07;25.02;;;3.90;;
58637;SDS011;54976;51.510;7.522;2023-11-19T10:42:15;25.05;;;3.55;;
58637;SDS011;54976;51.510;7.522;2023-11-19T10:45:22;26.85;;;4.10;;
58637;SDS011;54976;51.510;7.522;2023-11-19T10:48:26;26.27;;;3.22;;
58637;SDS011;54976;51.510;7.522;2023-11-19T10:51:27;14.27;;;2.90;;
58637;SDS011;54976;51.510;7.522;2023-11-19T10:54:29;28.85;;;4.63;;
58637;SDS011;54976;51.510;7.522;2023-11-19T10:57:30;26.02;;;3.78;;
58637;SDS011;54976;51.510;7.522;2023-11-19T11:03:51;27.17;;;4.00;;
58637;SDS011;54976;51.510;7.522;2023-11-19T11:06:54;29.02;;;4.32;;
58637;SDS011;54976;51.510;7.522;2023-11-19T11:09:58;27.25;;;3.70;;
58637;SDS011;54976;51.510;7.522;2023-11-19T11:13:01;32.25;;;3.95;;
58637;SDS011;54976;51.510;7.522;2023-11-19T11:16:03;30.60;;;3.50;;
58637;SDS011;54976;51.510;7.522;2023-11-19T11:19:06;29.30;;;4.20;;
58637;SDS011;54976;51.510;7.522;2023-11-19T11:22:09;33.08;;;3.75;;
58637;SDS011;54976;51.510;7.522;2023-11-19T11:37:55;19.60;;;3.35;;
58637;SDS011;54976;51.510;7.522;2023-11-19T11:44:34;25.33;;;4.32;;
58637;SDS011;54976;51.510;7.522;2023-11-19T11:48:04;25.08;;;3.72;;
58637;SDS011;54976;51.510;7.522;2023-11-19T11:54:45;32.53;;;4.00;;
58637;SDS011;54976;51.510;7.522;2023-11-19T11:57:47;25.75;;;3.30;;
58637;SDS011;54976;51.510;7.522;2023-11-19T12:00:48;27.35;;;3.38;;
58637;SDS011;54976;51.510;7.522;2023-11-19T12:03:49;24.85;;;4.07;;
58637;SDS011;54976;51.510;7.522;2023-11-19T12:10:14;27.70;;;3.38;;
58637;SDS011;54976;51.510;7.522;2023-11-19T12:13:16;23.67;;;3.30;;
58637;SDS011;54976;51.510;7.522;2023-11-19T12:16:23;23.33;;;3.85;;
58637;SDS011;54976;51.510;7.522;2023-11-19T12:19:24;24.63;;;3.33;;
58637;SDS011;54976;51.510;7.522;2023-11-19T12:22:26;25.25;;;3.63;;
58637;SDS011;54976;51.510;7.522;2023-11-19T12:25:26;26.83;;;3.13;;
58637;SDS011;54976;51.510;7.522;2023-11-19T12:28:27;29.55;;;3.42;;
58637;SDS011;54976;51.510;7.522;2023-11-19T12:31:27;21.25;;;2.78;;
58637;SDS011;54976;51.510;7.522;2023-11-19T12:34:28;21.95;;;3.35;;
58637;SDS011;54976;51.510;7.522;2023-11-19T12:37:29;29.33;;;3.95;;
58637;SDS011;54976;51.510;7.522;2023-11-19T12:40:31;20.65;;;3.00;;
58637;SDS011;54976;51.510;7.522;2023-11-19T12:43:32;19.67;;;3.58;;
58637;SDS011;54976;51.510;7.522;2023-11-19T12:46:34;19.98;;;3.13;;
58637;SDS011;54976;51.510;7.522;2023-11-19T12:49:34;21.05;;;2.92;;
58637;SDS011;54976;51.510;7.522;2023-11-19T12:52:35;17.98;;;3.22;;
58637;SDS011;54976;51.510;7.522;2023-11-19T12:55:37;16.02;;;2.35;;
58637;SDS011;54976;51.510;7.522;2023-11-19T12:58:38;25.58;;;3.33;;
58637;SDS011;54976;51.510;7.522;2023-11-19T13:01:39;17.48;;;2.55;;
58637;SDS011;54976;51.510;7.522;2023-11-19T13:04:41;33.17;;;3.72;;
58637;SDS011;54976;51.510;7.522;2023-11-19T13:07:41;17.70;;;3.00;;
58637;SDS011;54976;51.510;7.522;2023-11-19T13:13:55;25.50;;;2.90;;
58637;SDS011;54976;51.510;7.522;2023-11-19T13:16:59;21.35;;;3.80;;
58637;SDS011;54976;51.510;7.522;2023-11-19T13:19:59;27.50;;;3.45;;
58637;SDS011;54976;51.510;7.522;2023-11-19T13:23:01;19.35;;;3.33;;
58637;SDS011;54976;51.510;7.522;2023-11-19T13:26:03;26.40;;;3.78;;
58637;SDS011;54976;51.510;7.522;2023-11-19T13:29:04;15.68;;;2.40;;
58637;SDS011;54976;51.510;7.522;2023-11-19T13:32:04;20.73;;;3.05;;
58637;SDS011;54976;51.510;7.522;2023-11-19T13:35:05;19.80;;;2.83;;
58637;SDS011;54976;51.510;7.522;2023-11-19T13:38:08;26.20;;;2.85;;
58637;SDS011;54976;51.510;7.522;2023-11-19T13:41:09;19.17;;;3.40;;
58637;SDS011;54976;51.510;7.522;2023-11-19T13:44:11;20.90;;;2.88;;
58637;SDS011;54976;51.510;7.522;2023-11-19T13:47:12;22.17;;;3.47;;
58637;SDS011;54976;51.510;7.522;2023-11-19T13:50:14;18.67;;;3.10;;
58637;SDS011;54976;51.510;7.522;2023-11-19T13:53:16;16.13;;;2.40;;
58637;SDS011;54976;51.510;7.522;2023-11-19T13:56:17;17.38;;;2.28;;
58637;SDS011;54976;51.510;7.522;2023-11-19T13:59:18;18.75;;;2.40;;
58637;SDS011;54976;51.510;7.522;2023-11-19T14:02:18;17.02;;;3.08;;
58637;SDS011;54976;51.510;7.522;2023-11-19T14:05:19;13.23;;;2.22;;
58637;SDS011;54976;51.510;7.522;2023-11-19T14:08:19;21.02;;;3.15;;
58637;SDS011;54976;51.510;7.522;2023-11-19T14:11:20;18.20;;;2.83;;
58637;SDS011;54976;51.510;7.522;2023-11-19T14:14:21;19.35;;;2.45;;
58637;SDS011;54976;51.510;7.522;2023-11-19T14:17:22;13.98;;;2.58;;
58637;SDS011;54976;51.510;7.522;2023-11-19T14:20:22;20.88;;;2.72;;
58637;SDS011;54976;51.510;7.522;2023-11-19T14:23:23;26.48;;;2.97;;
58637;SDS011;54976;51.510;7.522;2023-11-19T14:26:25;16.88;;;2.90;;
58637;SDS011;54976;51.510;7.522;2023-11-19T14:29:26;17.90;;;3.28;;
58637;SDS011;54976;51.510;7.522;2023-11-19T14:32:29;19.95;;;2.95;;
58637;SDS011;54976;51.510;7.522;2023-11-19T14:35:30;23.08;;;2.95;;
58637;SDS011;54976;51.510;7.522;2023-11-19T14:38:32;23.10;;;3.15;;
58637;SDS011;54976;51.510;7.522;2023-11-19T14:41:33;20.38;;;2.78;;
58637;SDS011;54976;51.510;7.522;2023-11-19T14:44:34;17.38;;;2.75;;
58637;SDS011;54976;51.510;7.522;2023-11-19T14:47:34;17.55;;;2.65;;
58637;SDS011;54976;51.510;7.522;2023-11-19T14:50:35;19.02;;;3.13;;
58637;SDS011;54976;51.510;7.522;2023-11-19T14:53:36;25.98;;;2.03;;
58637;SDS011;54976;51.510;7.522;2023-11-19T14:56:36;21.80;;;2.90;;
58637;SDS011;54976;51.510;7.522;2023-11-19T14:59:38;17.00;;;3.42;;
58637;SDS011;54976;51.510;7.522;2023-11-19T15:02:40;20.55;;;2.92;;
58637;SDS011;54976;51.510;7.522;2023-11-19T15:05:41;14.80;;;2.65;;
58637;SDS011;54976;51.510;7.522;2023-11-19T15:08:42;19.58;;;3.20;;
58637;SDS011;54976;51.510;7.522;2023-11-19T15:11:44;24.17;;;3.53;;
58637;SDS011;54976;51.510;7.522;2023-11-19T15:14:46;20.20;;;2.72;;
58637;SDS011;54976;51.510;7.522;2023-11-19T15:17:46;23.73;;;3.58;;
58637;SDS011;54976;51.510;7.522;2023-11-19T15:20:47;19.05;;;2.75;;
58637;SDS011;54976;51.510;7.522;2023-11-19T15:23:47;18.55;;;2.78;;
58637;SDS011;54976;51.510;7.522;2023-11-19T15:26:48;22.23;;;3.13;;
58637;SDS011;54976;51.510;7.522;2023-11-19T15:29:49;16.45;;;2.70;;
58637;SDS011;54976;51.510;7.522;2023-11-19T15:32:49;23.08;;;3.03;;
58637;SDS011;54976;51.510;7.522;2023-11-19T15:35:50;23.70;;;2.53;;
58637;SDS011;54976;51.510;7.522;2023-11-19T15:38:50;17.63;;;3.13;;
58637;SDS011;54976;51.510;7.522;2023-11-19T15:41:51;21.13;;;3.15;;
58637;SDS011;54976;51.510;7.522;2023-11-19T15:44:52;18.30;;;2.85;;
58637;SDS011;54976;51.510;7.522;2023-11-19T15:47:52;23.70;;;3.65;;
58637;SDS011;54976;51.510;7.522;2023-11-19T15:50:53;16.90;;;2.20;;
58637;SDS011;54976;51.510;7.522;2023-11-19T15:53:54;29.88;;;2.88;;
58637;SDS011;54976;51.510;7.522;2023-11-19T15:56:54;18.85;;;2.70;;
58637;SDS011;54976;51.510;7.522;2023-11-19T15:59:55;16.10;;;2.80;;
58637;SDS011;54976;51.510;7.522;2023-11-19T16:02:56;26.27;;;3.60;;
58637;SDS011;54976;51.510;7.522;2023-11-19T16:05:56;20.75;;;3.42;;
58637;SDS011;54976;51.510;7.522;2023-11-19T16:08:57;21.20;;;2.88;;
58637;SDS011;54976;51.510;7.522;2023-11-19T16:11:58;14.55;;;2.42;;
58637;SDS011;54976;51.510;7.522;2023-11-19T16:14:59;24.25;;;3.13;;
58637;SDS011;54976;51.510;7.522;2023-11-19T16:18:00;22.88;;;2.83;;
58637;SDS011;54976;51.510;7.522;2023-11-19T16:21:01;21.90;;;2.67;;
58637;SDS011;54976;51.510;7.522;2023-11-19T16:24:01;16.63;;;2.30;;
58637;SDS011;54976;51.510;7.522;2023-11-19T16:27:03;22.45;;;2.75;;
58637;SDS011;54976;51.510;7.522;2023-11-19T16:30:04;19.67;;;3.38;;
58637;SDS011;54976;51.510;7.522;2023-11-19T16:33:05;16.35;;;2.67;;
58637;SDS011;54976;51.510;7.522;2023-11-19T16:36:07;18.73;;;2.80;;
58637;SDS011;54976;51.510;7.522;2023-11-19T16:39:08;16.13;;;2.38;;
58637;SDS011;54976;51.510;7.522;2023-11-19T16:42:10;19.25;;;2.65;;
58637;SDS011;54976;51.510;7.522;2023-11-19T16:45:11;22.17;;;3.22;;
58637;SDS011;54976;51.510;7.522;2023-11-19T16:48:13;25.70;;;3.33;;
58637;SDS011;54976;51.510;7.522;2023-11-19T16:51:14;22.70;;;3.10;;
58637;SDS011;54976;51.510;7.522;2023-11-19T16:54:16;23.80;;;2.97;;
58637;SDS011;54976;51.510;7.522;2023-11-19T16:57:18;31.45;;;3.05;;
58637;SDS011;54976;51.510;7.522;2023-11-19T17:00:20;23.63;;;3.08;;
58637;SDS011;54976;51.510;7.522;2023-11-19T17:03:21;30.70;;;3.70;;
58637;SDS011;54976;51.510;7.522;2023-11-19T17:06:22;35.13;;;3.85;;
58637;SDS011;54976;51.510;7.522;2023-11-19T17:09:23;26.33;;;3.45;;
58637;SDS011;54976;51.510;7.522;2023-11-19T17:12:25;34.90;;;4.47;;
58637;SDS011;54976;51.510;7.522;2023-11-19T17:15:26;25.73;;;3.03;;
58637;SDS011;54976;51.510;7.522;2023-11-19T17:18:26;22.85;;;3.53;;
58637;SDS011;54976;51.510;7.522;2023-11-19T17:21:27;23.77;;;2.97;;
58637;SDS011;54976;51.510;7.522;2023-11-19T17:24:27;23.13;;;3.20;;
58637;SDS011;54976;51.510;7.522;2023-11-19T17:27:32;27.13;;;3.35;;
58637;SDS011;54976;51.510;7.522;2023-11-19T17:30:33;26.75;;;3.15;;
58637;SDS011;54976;51.510;7.522;2023-11-19T17:33:34;24.20;;;3.53;;
58637;SDS011;54976;51.510;7.522;2023-11-19T17:36:35;27.88;;;3.92;;
58637;SDS011;54976;51.510;7.522;2023-11-19T17:39:35;26.17;;;3.40;;
58637;SDS011;54976;51.510;7.522;2023-11-19T17:42:36;22.67;;;3.38;;
58637;SDS011;54976;51.510;7.522;2023-11-19T17:45:37;29.15;;;4.32;;
58637;SDS011;54976;51.510;7.522;2023-11-19T17:48:38;29.52;;;3.85;;
58637;SDS011;54976;51.510;7.522;2023-11-19T17:51:39;29.30;;;3.63;;
58637;SDS011;54976;51.510;7.522;2023-11-19T17:54:40;20.35;;;2.70;;
58637;SDS011;54976;51.510;7.522;2023-11-19T17:57:41;29.67;;;3.25;;
58637;SDS011;54976;51.510;7.522;2023-11-19T18:00:42;16.90;;;2.67;;
58637;SDS011;54976;51.510;7.522;2023-11-19T18:03:43;27.15;;;3.45;;
58637;SDS011;54976;51.510;7.522;2023-11-19T18:06:44;19.30;;;2.90;;
58637;SDS011;54976;51.510;7.522;2023-11-19T18:09:44;22.98;;;3.88;;
58637;SDS011;54976;51.510;7.522;2023-11-19T18:12:45;19.55;;;3.28;;
58637;SDS011;54976;51.510;7.522;2023-11-19T18:15:45;17.95;;;3.22;;
58637;SDS011;54976;51.510;7.522;2023-11-19T18:18:46;25.98;;;3.30;;
58637;SDS011;54976;51.510;7.522;2023-11-19T18:21:47;14.90;;;2.58;;
58637;SDS011;54976;51.510;7.522;2023-11-19T18:24:47;32.42;;;4.32;;
58637;SDS011;54976;51.510;7.522;2023-11-19T18:27:48;33.03;;;4.75;;
58637;SDS011;54976;51.510;7.522;2023-11-19T18:30:48;33.92;;;4.25;;